Time;durP1;ratioP1;P1;durP2;ratioP2;P2;SDS_P1;SDS_P2;PMS_P1;PMS_P2;Temp;Humidity;BMP_temperature;BMP_pressure;BME280_temperature;BME280_humidity;BME280_pressure;Samples;Min_cycle;Max_cycle;Signal;HPM_P1;HPM_P2
2024/02/16 00:01:38;;;;;;;0.10;0.10;;;;;;;13.69;66.87;100955.59;5025158;28;20037;-79
2024/02/16 00:04:04;;;;;;;0.20;0.20;;;;;;;13.65;67.01;100945.97;5030655;28;20033;-79
2024/02/16 00:06:31;;;;;;;0.10;0.10;;;;;;;13.64;66.85;100953.06;5043545;28;20022;-79
2024/02/16 00:08:57;;;;;;;0.17;0.17;;;;;;;13.61;67.00;100957.59;5042071;28;20021;-79
2024/02/16 00:11:25;;;;;;;0.30;0.30;;;;;;;13.61;67.08;100957.59;5040217;28;20048;-79
2024/02/16 00:13:51;;;;;;;0.10;0.10;;;;;;;13.55;67.19;100953.34;5040895;28;20037;-79
2024/02/16 00:16:17;;;;;;;0.65;0.65;;;;;;;13.57;67.12;100952.38;5050000;28;20089;-78
2024/02/16 00:18:44;;;;;;;0.90;0.90;;;;;;;13.55;67.14;100958.69;5047205;28;20096;-78
2024/02/16 00:21:10;;;;;;;1.52;1.38;;;;;;;13.51;67.09;100963.22;5035645;28;20072;-78
2024/02/16 00:23:36;;;;;;;0.10;0.10;;;;;;;13.53;66.95;100961.41;5034618;28;20095;-77
2024/02/16 00:26:07;;;;;;;0.10;0.10;;;;;;;13.49;67.27;100957.06;5042835;28;20108;-78
2024/02/16 00:28:33;;;;;;;0.10;0.10;;;;;;;13.48;67.03;100957.97;5034325;28;20057;-77
2024/02/16 00:30:59;;;;;;;0.10;0.10;;;;;;;13.43;67.17;100954.59;5035205;28;20116;-77
2024/02/16 00:33:25;;;;;;;0.10;0.10;;;;;;;13.41;67.08;100954.63;5036539;28;20041;-78
2024/02/16 00:35:52;;;;;;;0.10;0.10;;;;;;;13.38;67.15;100953.84;5037528;28;20030;-78
2024/02/16 00:38:19;;;;;;;0.10;0.10;;;;;;;13.38;67.27;100951.19;5038743;28;20047;-79
2024/02/16 00:40:45;;;;;;;0.10;0.10;;;;;;;13.34;67.33;100954.84;5033680;28;20044;-79
2024/02/16 00:43:11;;;;;;;0.10;0.10;;;;;;;13.27;67.47;100960.34;5032330;28;20044;-79
2024/02/16 00:45:38;;;;;;;0.10;0.10;;;;;;;13.30;67.31;100954.06;5030526;28;20033;-77
2024/02/16 00:48:07;;;;;;;0.15;0.15;;;;;;;13.27;67.55;100952.38;5037430;28;20060;-78
2024/02/16 00:50:33;;;;;;;0.10;0.10;;;;;;;13.29;67.70;100946.13;5034351;28;20033;-77
2024/02/16 00:53:01;;;;;;;0.10;0.10;;;;;;;13.31;67.30;100949.59;5040453;28;20029;-77
2024/02/16 00:55:27;;;;;;;0.15;0.15;;;;;;;13.31;67.65;100933.63;5029376;28;20101;-78
2024/02/16 00:57:53;;;;;;;0.15;0.15;;;;;;;13.33;67.39;100932.66;5039918;28;20025;-77
2024/02/16 01:00:19;;;;;;;0.10;0.10;;;;;;;13.32;67.34;100940.69;5043544;28;20382;-78
2024/02/16 01:02:46;;;;;;;0.30;0.30;;;;;;;13.33;67.87;100937.13;5042881;28;20040;-78
2024/02/16 01:05:12;;;;;;;0.10;0.10;;;;;;;13.34;67.35;100928.22;5039355;28;20033;-78
2024/02/16 01:07:39;;;;;;;0.73;0.73;;;;;;;13.35;67.53;100929.97;5043069;28;20041;-78
2024/02/16 01:10:06;;;;;;;0.20;0.20;;;;;;;13.33;67.38;100926.47;5033448;28;20033;-78
2024/02/16 01:12:32;;;;;;;0.10;0.10;;;;;;;13.29;67.55;100919.53;5050262;28;20040;-78
2024/02/16 01:14:59;;;;;;;0.20;0.20;;;;;;;13.27;67.33;100914.22;5051717;28;20018;-79
2024/02/16 01:17:26;;;;;;;0.10;0.10;;;;;;;13.24;67.21;100920.50;5046346;28;20049;-78
2024/02/16 01:19:52;;;;;;;0.30;0.30;;;;;;;13.21;67.17;100933.91;5041720;28;20053;-78
2024/02/16 01:22:18;;;;;;;0.10;0.10;;;;;;;13.17;67.30;100926.94;5036834;28;20049;-78
2024/02/16 01:24:44;;;;;;;0.10;0.10;;;;;;;13.14;67.57;100927.03;5042017;28;20097;-78
2024/02/16 01:27:11;;;;;;;0.10;0.10;;;;;;;13.10;67.67;100928.03;5043526;28;20037;-78
2024/02/16 01:29:37;;;;;;;0.10;0.10;;;;;;;13.10;67.55;100934.22;5032217;28;20028;-77
2024/02/16 01:32:04;;;;;;;0.45;0.45;;;;;;;13.09;67.86;100923.63;5040377;28;20037;-77
2024/02/16 01:34:31;;;;;;;0.10;0.10;;;;;;;13.07;67.65;100922.78;5038211;28;20034;-77
2024/02/16 01:36:58;;;;;;;0.10;0.10;;;;;;;13.04;68.04;100901.63;5035665;28;20026;-77
2024/02/16 01:39:24;;;;;;;0.10;0.10;;;;;;;13.00;68.39;100884.88;5026158;28;20116;-77
2024/02/16 01:41:51;;;;;;;0.10;0.10;;;;;;;13.02;68.26;100890.16;5027638;28;20030;-77
2024/02/16 01:44:17;;;;;;;0.50;0.50;;;;;;;13.01;68.39;100921.19;5023882;28;20033;-77
2024/02/16 01:46:43;;;;;;;0.20;0.20;;;;;;;12.97;68.23;100921.31;5024306;28;20101;-77
2024/02/16 01:49:11;;;;;;;0.20;0.20;;;;;;;13.02;68.55;100911.41;5027076;28;20030;-77
2024/02/16 01:51:38;;;;;;;0.10;0.10;;;;;;;13.05;68.59;100914.00;5031984;28;20053;-77
2024/02/16 01:54:04;;;;;;;0.10;0.10;;;;;;;13.02;68.32;100922.06;5027600;28;20033;-77
2024/02/16 01:56:31;;;;;;;0.10;0.10;;;;;;;13.05;68.18;100922.00;5038647;28;20639;-78
2024/02/16 01:58:57;;;;;;;0.10;0.10;;;;;;;13.01;68.39;100920.31;5044750;28;20033;-77
2024/02/16 02:01:23;;;;;;;0.10;0.10;;;;;;;13.01;68.42;100920.31;5046323;28;20116;-78
2024/02/16 02:03:51;;;;;;;0.10;0.10;;;;;;;12.98;68.23;100913.28;5044497;28;20512;-79
2024/02/16 02:06:17;;;;;;;0.10;0.10;;;;;;;12.94;68.70;100903.66;5046434;28;20040;-79
2024/02/16 02:08:44;;;;;;;0.10;0.10;;;;;;;12.91;68.39;100899.31;5043122;28;20092;-78
2024/02/16 02:11:10;;;;;;;0.10;0.10;;;;;;;12.88;68.52;100895.88;5041758;28;20520;-77
2024/02/16 02:13:37;;;;;;;0.10;0.10;;;;;;;12.86;68.36;100901.25;5030429;28;20033;-77
2024/02/16 02:16:04;;;;;;;0.10;0.10;;;;;;;12.84;68.30;100896.88;5037135;28;20017;-77
2024/02/16 02:18:30;;;;;;;0.20;0.20;;;;;;;12.81;68.67;100894.28;5033854;28;20032;-77
2024/02/16 02:20:56;;;;;;;0.10;0.10;;;;;;;12.79;68.51;100907.66;5026530;28;20080;-77
2024/02/16 02:23:23;;;;;;;0.10;0.10;;;;;;;12.80;68.22;100906.72;5026016;28;20072;-77
2024/02/16 02:25:50;;;;;;;0.13;0.13;;;;;;;12.80;68.37;100904.06;5040831;28;20037;-77
2024/02/16 02:28:16;;;;;;;0.52;0.40;;;;;;;12.80;68.37;100906.72;5025885;28;20068;-78
2024/02/16 02:30:45;;;;;;;0.10;0.10;;;;;;;12.79;68.79;100904.97;5027511;28;20055;-77
2024/02/16 02:33:12;;;;;;;0.45;0.45;;;;;;;12.78;68.86;100897.91;5033943;28;20041;-78
2024/02/16 02:35:39;;;;;;;0.20;0.20;;;;;;;12.75;68.67;100890.03;5026615;28;20505;-77
2024/02/16 02:38:06;;;;;;;0.63;0.63;;;;;;;12.71;68.33;100883.94;5031884;28;20029;-77
2024/02/16 02:40:33;;;;;;;0.10;0.10;;;;;;;12.70;68.78;100890.16;5038411;28;20034;-78
2024/02/16 02:42:59;;;;;;;0.20;0.20;;;;;;;12.71;68.69;100888.38;5046546;28;20018;-78
2024/02/16 02:45:25;;;;;;;0.10;0.10;;;;;;;12.71;68.68;100885.69;5032216;28;20254;-78
2024/02/16 02:47:52;;;;;;;0.20;0.20;;;;;;;12.71;68.51;100885.69;5034344;28;20034;-78
2024/02/16 02:50:18;;;;;;;0.20;0.20;;;;;;;12.71;68.27;100886.59;5039803;28;20033;-78
2024/02/16 02:52:45;;;;;;;0.20;0.20;;;;;;;12.70;68.73;100876.00;5032365;28;20040;-78
2024/02/16 02:55:11;;;;;;;0.20;0.20;;;;;;;12.68;68.69;100880.50;5042820;28;20083;-78
2024/02/16 02:57:38;;;;;;;0.80;0.80;;;;;;;12.65;68.86;100875.25;5039113;28;20045;-78
2024/02/16 03:00:10;;;;;;;0.10;0.10;;;;;;;12.62;68.79;100877.09;5030688;28;20408;-77
2024/02/16 03:02:38;;;;;;;0.40;0.40;;;;;;;12.58;68.87;100878.06;5037297;28;20029;-77
2024/02/16 03:05:07;;;;;;;0.10;0.10;;;;;;;12.58;69.02;100871.91;5039148;28;20484;-77
2024/02/16 03:07:33;;;;;;;0.20;0.20;;;;;;;12.59;68.49;100869.19;5045182;28;20504;-77
2024/02/16 03:10:00;;;;;;;0.10;0.10;;;;;;;12.56;69.10;100869.28;5042016;28;20090;-77
2024/02/16 03:12:26;;;;;;;0.10;0.10;;;;;;;12.59;68.81;100871.84;5029939;28;20037;-78
2024/02/16 03:14:52;;;;;;;0.10;0.10;;;;;;;12.57;69.05;100868.38;5037110;28;20366;-77
2024/02/16 03:17:18;;;;;;;0.10;0.10;;;;;;;12.58;68.80;100863.94;5037461;28;20061;-77
2024/02/16 03:19:45;;;;;;;0.10;0.10;;;;;;;12.59;68.51;100863.88;5037681;28;20025;-77
2024/02/16 03:22:11;;;;;;;0.10;0.10;;;;;;;12.59;68.65;100861.22;5037017;28;20071;-77
2024/02/16 03:24:37;;;;;;;1.13;1.13;;;;;;;12.59;68.42;100858.56;5046166;28;20044;-79
2024/02/16 03:27:03;;;;;;;0.20;0.20;;;;;;;12.59;68.39;100865.69;5051441;28;20025;-79
2024/02/16 03:29:30;;;;;;;0.22;0.22;;;;;;;12.57;68.64;100857.75;5045631;28;20026;-79
2024/02/16 03:31:56;;;;;;;0.30;0.30;;;;;;;12.60;68.77;100862.97;5037263;28;20037;-77
2024/02/16 03:34:22;;;;;;;0.20;0.20;;;;;;;12.61;68.42;100856.75;5038993;28;20090;-78
2024/02/16 03:36:48;;;;;;;0.10;0.10;;;;;;;12.64;68.33;100857.59;5043315;28;20025;-78
2024/02/16 03:39:19;;;;;;;0.10;0.10;;;;;;;12.66;68.60;100861.03;5035259;28;20028;-78
2024/02/16 03:41:49;;;;;;;0.13;0.13;;;;;;;12.68;68.22;100864.53;5033506;28;20040;-78
2024/02/16 03:44:16;;;;;;;0.10;0.10;;;;;;;12.67;68.64;100863.66;5025032;28;20044;-78
2024/02/16 03:46:43;;;;;;;0.75;0.75;;;;;;;12.68;68.60;100864.53;5032438;28;20180;-78
2024/02/16 03:49:10;;;;;;;0.10;0.10;;;;;;;12.67;68.19;100866.31;5034583;28;20026;-78
2024/02/16 03:51:37;;;;;;;0.10;0.10;;;;;;;12.66;68.44;100856.63;5043614;28;20035;-78
2024/02/16 03:54:04;;;;;;;0.10;0.10;;;;;;;12.66;68.32;100855.72;5033349;28;20076;-78
2024/02/16 03:56:31;;;;;;;0.20;0.20;;;;;;;12.65;68.43;100853.97;5038721;28;20025;-79
2024/02/16 03:58:57;;;;;;;0.20;0.20;;;;;;;12.64;68.41;100854.91;5037699;28;20029;-78
2024/02/16 04:01:23;;;;;;;0.52;0.52;;;;;;;12.61;67.89;100854.09;5035677;28;20026;-78
2024/02/16 04:03:49;;;;;;;1.65;1.20;;;;;;;12.58;68.04;100859.47;5041124;28;20025;-78
2024/02/16 04:06:16;;;;;;;0.22;0.22;;;;;;;12.54;68.09;100854.31;5038721;28;20068;-78
2024/02/16 04:08:42;;;;;;;0.10;0.10;;;;;;;12.51;68.44;100855.25;5032640;28;20030;-78
2024/02/16 04:11:10;;;;;;;0.10;0.10;;;;;;;12.50;67.95;100865.91;5035186;28;20029;-77
2024/02/16 04:13:36;;;;;;;0.10;0.10;;;;;;;12.46;68.23;100867.78;5024570;28;20060;-78
2024/02/16 04:16:03;;;;;;;1.13;0.50;;;;;;;12.43;67.97;100870.53;5031731;28;20385;-78
2024/02/16 04:18:29;;;;;;;0.10;0.10;;;;;;;12.42;68.03;100871.44;5038005;28;20025;-78
2024/02/16 04:20:55;;;;;;;0.10;0.10;;;;;;;12.39;68.19;100872.41;5031760;28;20089;-78
2024/02/16 04:23:21;;;;;;;0.20;0.20;;;;;;;12.38;68.49;100860.03;5035056;28;20033;-78
2024/02/16 04:25:47;;;;;;;0.10;0.10;;;;;;;12.36;68.47;100868.94;5029142;28;20030;-78
2024/02/16 04:28:14;;;;;;;0.10;0.10;;;;;;;12.35;68.62;100860.13;5031961;28;20390;-78
2024/02/16 04:30:40;;;;;;;0.10;0.10;;;;;;;12.32;68.29;100852.22;5026365;28;20080;-78
2024/02/16 04:33:06;;;;;;;0.10;0.10;;;;;;;12.31;68.53;100850.47;5035445;28;20389;-78
2024/02/16 04:35:33;;;;;;;0.10;0.10;;;;;;;12.29;68.62;100858.50;5028335;28;20045;-78
2024/02/16 04:37:59;;;;;;;0.30;0.30;;;;;;;12.28;68.73;100867.38;5032617;28;20029;-78
2024/02/16 04:40:26;;;;;;;0.10;0.10;;;;;;;12.27;68.29;100875.38;5038798;28;20904;-78
2024/02/16 04:42:52;;;;;;;0.10;0.10;;;;;;;12.23;68.89;100866.63;5044396;28;20044;-77
2024/02/16 04:45:19;;;;;;;0.10;0.10;;;;;;;12.23;68.25;100868.41;5041398;28;20100;-77
2024/02/16 04:47:46;;;;;;;0.20;0.20;;;;;;;12.21;68.36;100870.22;5029863;28;20033;-77
2024/02/16 04:50:12;;;;;;;0.10;0.10;;;;;;;12.18;68.21;100859.72;5030021;28;20058;-78
2024/02/16 04:52:40;;;;;;;0.10;0.10;;;;;;;12.19;68.80;100869.44;5028188;28;20025;-77
2024/02/16 04:55:07;;;;;;;0.20;0.20;;;;;;;12.18;68.90;100878.28;5029599;28;20029;-77
2024/02/16 04:57:34;;;;;;;0.20;0.20;;;;;;;12.17;68.80;100877.41;5036147;28;20033;-78
2024/02/16 05:00:00;;;;;;;0.17;0.17;;;;;;;12.17;68.51;100877.41;5034665;28;20113;-78
2024/02/16 05:02:26;;;;;;;0.20;0.20;;;;;;;12.16;69.02;100873.00;5032365;28;20033;-77
2024/02/16 05:04:52;;;;;;;0.10;0.10;;;;;;;12.15;69.06;100881.91;5024961;28;20041;-77
2024/02/16 05:07:19;;;;;;;0.20;0.20;;;;;;;12.14;68.28;100875.72;5027244;28;20034;-77
2024/02/16 05:09:45;;;;;;;0.20;0.20;;;;;;;12.15;68.95;100863.31;5027570;28;20021;-77
2024/02/16 05:12:11;;;;;;;0.10;0.10;;;;;;;12.14;69.13;100880.16;5039058;28;20079;-76
2024/02/16 05:14:38;;;;;;;0.20;0.20;;;;;;;12.14;68.96;100875.72;5027644;28;20041;-77
2024/02/16 05:17:04;;;;;;;0.10;0.10;;;;;;;12.13;68.55;100855.38;5026941;28;20068;-77
2024/02/16 05:19:34;;;;;;;0.10;0.10;;;;;;;12.17;69.05;100865.94;5029887;28;20034;-77
2024/02/16 05:22:00;;;;;;;0.20;0.20;;;;;;;12.14;68.67;100858.91;5036085;28;20079;-78
2024/02/16 05:24:26;;;;;;;0.10;0.10;;;;;;;12.14;68.73;100870.41;5023626;28;20041;-76
2024/02/16 05:26:54;;;;;;;0.32;0.32;;;;;;;12.17;69.37;100869.44;5031305;28;20417;-77
2024/02/16 05:29:21;;;;;;;0.20;0.20;;;;;;;12.15;69.34;100876.59;5024460;28;20036;-77
2024/02/16 05:31:47;;;;;;;0.20;0.20;;;;;;;12.24;69.62;100889.63;5027366;28;20026;-77
2024/02/16 05:34:13;;;;;;;0.20;0.20;;;;;;;12.25;69.24;100875.44;5027662;28;20595;-77
2024/02/16 05:36:41;;;;;;;0.52;0.52;;;;;;;12.33;69.66;100867.25;5032125;28;20065;-77
2024/02/16 05:39:53;;;;;;;0.10;0.10;;;;;;;12.38;69.51;100872.44;5036765;28;20035;-77
2024/02/16 05:41:54;;;;;;;0.10;0.10;;;;;;;12.44;69.46;100880.25;5038352;28;20041;-77
2024/02/16 05:44:20;;;;;;;0.40;0.40;;;;;;;12.49;69.24;100875.69;5034599;28;20051;-77
2024/02/16 05:46:46;;;;;;;0.43;0.43;;;;;;;12.55;69.50;100877.31;5034821;28;20053;-77
2024/02/16 05:49:14;;;;;;;0.77;0.77;;;;;;;12.62;69.07;100876.22;5023818;28;20036;-77
2024/02/16 05:51:41;;;;;;;0.10;0.10;;;;;;;12.67;69.20;100876.09;5028089;28;20063;-78
2024/02/16 05:54:07;;;;;;;0.20;0.20;;;;;;;12.70;69.32;100884.84;5041434;28;20082;-76
2024/02/16 05:56:36;;;;;;;0.10;0.10;;;;;;;12.71;69.25;100886.59;5031189;28;20033;-78
2024/02/16 05:59:03;;;;;;;0.10;0.10;;;;;;;12.78;69.49;100890.84;5033247;28;20034;-79
2024/02/16 06:01:30;;;;;;;0.10;0.10;;;;;;;12.83;68.99;100890.69;5048892;28;20037;-79
2024/02/16 06:03:56;;;;;;;0.32;0.32;;;;;;;12.88;69.14;100888.75;5042640;28;20243;-77
2024/02/16 06:06:22;;;;;;;0.10;0.10;;;;;;;12.88;69.12;100894.06;5036568;28;20042;-77
2024/02/16 06:08:48;;;;;;;0.10;0.10;;;;;;;12.83;69.42;100896.00;5040400;28;20026;-78
2024/02/16 06:11:15;;;;;;;0.10;0.10;;;;;;;13.02;69.18;100890.16;5037355;28;20042;-77
2024/02/16 06:13:41;;;;;;;0.10;0.10;;;;;;;13.05;68.98;100895.38;5046786;28;20029;-77
2024/02/16 06:16:08;;;;;;;0.75;0.60;;;;;;;13.15;68.67;100888.00;5028251;28;20030;-78
2024/02/16 06:18:35;;;;;;;0.10;0.10;;;;;;;13.14;68.77;100900.41;5031777;28;20732;-78
2024/02/16 06:21:02;;;;;;;0.10;0.10;;;;;;;13.24;68.34;100901.88;5025690;28;20502;-78
2024/02/16 06:23:28;;;;;;;0.10;0.10;;;;;;;13.22;68.61;100906.41;5034298;28;20037;-77
2024/02/16 06:25:54;;;;;;;0.20;0.20;;;;;;;13.32;68.53;100909.66;5040429;28;20033;-77
2024/02/16 06:28:20;;;;;;;0.10;0.10;;;;;;;13.31;68.08;100912.34;5035801;28;20038;-77
2024/02/16 06:30:46;;;;;;;0.20;0.20;;;;;;;13.36;68.12;100907.78;5021431;28;20022;-77
2024/02/16 06:33:13;;;;;;;0.17;0.17;;;;;;;13.43;68.06;100904.00;5027941;28;20381;-77
2024/02/16 06:35:39;;;;;;;0.20;0.20;;;;;;;13.42;67.63;100904.94;5031958;28;20129;-77
2024/02/16 06:38:05;;;;;;;1.85;1.75;;;;;;;13.43;67.91;100912.00;5030342;28;20025;-77
2024/02/16 06:40:31;;;;;;;0.10;0.10;;;;;;;13.49;67.55;100917.13;5039149;28;20167;-77
2024/02/16 06:42:58;;;;;;;0.10;0.10;;;;;;;13.54;67.93;100915.19;5041740;28;20057;-79
2024/02/16 06:45:25;;;;;;;0.10;0.10;;;;;;;13.58;67.60;100921.28;5046480;28;20197;-79
2024/02/16 06:47:51;;;;;;;0.10;0.10;;;;;;;13.52;67.19;100926.81;5048099;28;20064;-79
2024/02/16 06:50:18;;;;;;;0.32;0.32;;;;;;;13.54;67.84;100925.84;5049342;28;20052;-78
2024/02/16 06:52:45;;;;;;;0.50;0.50;;;;;;;13.55;67.45;100927.59;5052630;28;20035;-79
2024/02/16 06:55:11;;;;;;;0.10;0.10;;;;;;;13.54;67.71;100936.50;5054315;28;20708;-79
2024/02/16 06:57:37;;;;;;;0.17;0.17;;;;;;;13.59;67.19;100939.91;5045242;28;20033;-79
2024/02/16 07:00:05;;;;;;;0.10;0.10;;;;;;;13.56;67.40;100939.13;5038063;28;20060;-79
2024/02/16 07:02:32;;;;;;;0.75;0.75;;;;;;;13.64;67.71;100947.72;5041637;28;20060;-79
2024/02/16 07:04:58;;;;;;;0.85;0.85;;;;;;;13.67;67.66;100950.31;5034544;28;20551;-80
2024/02/16 07:07:24;;;;;;;0.10;0.10;;;;;;;13.69;67.66;100945.78;5040849;28;20048;-79
2024/02/16 07:09:50;;;;;;;0.10;0.10;;;;;;;13.71;67.55;100948.44;5040461;28;20318;-79
2024/02/16 07:12:17;;;;;;;0.20;0.20;;;;;;;13.72;67.38;100948.38;5048308;28;20039;-79
2024/02/16 07:14:45;;;;;;;0.10;0.10;;;;;;;13.78;67.45;100944.63;5053618;28;20104;-79
2024/02/16 07:17:11;;;;;;;0.28;0.28;;;;;;;13.79;67.67;100961.50;5046150;28;20036;-79
2024/02/16 07:19:38;;;;;;;0.20;0.20;;;;;;;13.76;67.73;100954.47;5046135;28;20089;-78
2024/02/16 07:22:06;;;;;;;0.10;0.10;;;;;;;13.83;67.63;100963.13;5050830;28;20025;-78
2024/02/16 07:24:33;;;;;;;0.10;0.10;;;;;;;13.80;67.61;100963.25;5037741;28;20116;-77
2024/02/16 07:26:59;;;;;;;0.20;0.20;;;;;;;13.82;67.79;100970.25;5033465;28;20093;-79
2024/02/16 07:29:27;;;;;;;0.10;0.10;;;;;;;13.82;68.11;100980.03;5031825;28;20433;-78
2024/02/16 07:31:53;;;;;;;0.10;0.10;;;;;;;13.90;67.80;100983.34;5039173;28;20104;-78
2024/02/16 07:34:20;;;;;;;0.60;0.60;;;;;;;13.93;67.75;100982.38;5031707;28;20092;-78
2024/02/16 07:36:46;;;;;;;0.10;0.10;;;;;;;13.89;67.67;100990.47;5032468;28;20025;-78
2024/02/16 07:39:12;;;;;;;0.20;0.20;;;;;;;13.99;67.73;100993.69;5036873;28;20025;-77
2024/02/16 07:41:39;;;;;;;0.20;0.20;;;;;;;14.01;67.76;100999.84;5035132;28;20036;-78
2024/02/16 07:44:05;;;;;;;6.43;1.85;;;;;;;13.97;67.85;101005.31;5045015;28;20029;-77
2024/02/16 07:46:32;;;;;;;0.10;0.10;;;;;;;14.02;67.79;101000.72;5051328;28;20036;-79
2024/02/16 07:48:58;;;;;;;0.10;0.10;;;;;;;14.07;67.82;101014.78;5040608;28;20053;-78
2024/02/16 07:51:24;;;;;;;2.53;1.67;;;;;;;14.08;67.96;101011.16;5049100;28;20039;-77
2024/02/16 07:53:50;;;;;;;0.10;0.10;;;;;;;14.21;67.57;101012.53;5026577;28;20028;-76
2024/02/16 07:56:18;;;;;;;0.30;0.30;;;;;;;14.28;67.41;101009.66;5031268;28;20049;-77
2024/02/16 07:58:44;;;;;;;0.55;0.55;;;;;;;14.26;67.70;101019.50;5041658;28;20022;-79
2024/02/16 08:01:15;;;;;;;0.30;0.30;;;;;;;14.28;67.88;101017.66;5035996;28;20042;-77
2024/02/16 08:03:41;;;;;;;0.77;0.77;;;;;;;14.34;67.81;101022.78;5033087;28;20022;-79
2024/02/16 08:06:08;;;;;;;0.10;0.10;;;;;;;14.41;67.40;101027.00;5037991;28;20045;-78
2024/02/16 08:08:34;;;;;;;0.40;0.40;;;;;;;14.48;67.57;101033.88;5046120;28;20033;-78
2024/02/16 08:11:00;;;;;;;0.20;0.20;;;;;;;14.56;67.04;101026.47;5057955;28;20056;-78
2024/02/16 08:13:27;;;;;;;0.20;0.20;;;;;;;14.56;67.16;101036.28;5047642;28;20033;-78
2024/02/16 08:15:53;;;;;;;0.93;0.65;;;;;;;14.61;67.04;101037.00;5042687;28;20022;-78
2024/02/16 08:18:19;;;;;;;0.10;0.10;;;;;;;14.65;66.95;101049.31;5040195;28;20445;-78
2024/02/16 08:20:46;;;;;;;0.10;0.10;;;;;;;14.72;67.03;101034.84;5049482;28;20029;-77
2024/02/16 08:23:12;;;;;;;0.22;0.22;;;;;;;14.64;66.56;101047.56;5053842;28;20037;-78
2024/02/16 08:25:38;;;;;;;2.08;1.45;;;;;;;14.80;66.65;101042.59;5030362;28;20370;-77
2024/02/16 08:28:04;;;;;;;0.05;0.05;;;;;;;14.82;66.25;101051.41;5028067;28;20527;-79
2024/02/16 08:30:31;;;;;;;0.10;0.10;;;;;;;14.86;66.47;101053.03;5045702;28;20033;-77
2024/02/16 08:32:58;;;;;;;0.70;0.55;;;;;;;14.83;66.36;101055.84;5037577;28;20034;-78
2024/02/16 08:35:24;;;;;;;0.10;0.10;;;;;;;14.89;66.44;101057.41;5030933;28;20060;-79
2024/02/16 08:37:50;;;;;;;0.10;0.10;;;;;;;14.85;66.20;101066.44;5030792;28;20041;-77
2024/02/16 08:40:16;;;;;;;0.20;0.20;;;;;;;14.93;66.21;101068.84;5042787;28;20680;-77
2024/02/16 08:42:43;;;;;;;0.00;0.00;;;;;;;14.85;66.07;101054.00;5045717;28;20034;-77
2024/02/16 08:45:09;;;;;;;2.97;0.50;;;;;;;14.93;66.40;101055.50;5048493;28;20052;-76
2024/02/16 08:47:36;;;;;;;0.10;0.10;;;;;;;14.92;66.08;101053.78;5044385;28;20077;-77
2024/02/16 08:50:02;;;;;;;0.10;0.10;;;;;;;14.88;66.33;101067.22;5052969;28;20061;-78
2024/02/16 08:52:28;;;;;;;0.10;0.10;;;;;;;14.83;66.23;101066.50;5058465;28;20036;-79
2024/02/16 08:54:54;;;;;;;0.10;0.10;;;;;;;14.80;66.58;101074.59;5056187;28;20029;-77
2024/02/16 08:57:21;;;;;;;0.20;0.20;;;;;;;14.90;66.42;101075.16;5043573;28;20060;-78
2024/02/16 08:59:47;;;;;;;0.38;0.35;;;;;;;14.83;66.58;101095.84;5042347;28;20279;-79
2024/02/16 09:02:13;;;;;;;0.17;0.17;;;;;;;14.91;66.74;101103.59;5041019;28;20044;-79
2024/02/16 09:04:40;;;;;;;0.43;0.43;;;;;;;14.86;66.61;101108.22;5042513;28;20049;-76
2024/02/16 09:07:06;;;;;;;0.35;0.35;;;;;;;14.94;66.71;101113.28;5047669;28;20504;-82
2024/02/16 09:09:33;;;;;;;1.85;0.45;;;;;;;14.99;66.78;101122.88;5044306;28;20045;-77
2024/02/16 09:11:59;;;;;;;0.10;0.10;;;;;;;15.12;66.33;101117.13;5037820;28;20032;-77
2024/02/16 09:14:25;;;;;;;0.20;0.20;;;;;;;15.12;66.44;101119.78;5036883;28;20060;-76
2024/02/16 09:16:51;;;;;;;0.20;0.20;;;;;;;15.19;66.51;101130.19;5037703;28;20032;-77
2024/02/16 09:19:19;;;;;;;0.10;0.10;;;;;;;15.23;66.44;101133.63;5037599;28;20033;-77
2024/02/16 09:21:46;;;;;;;0.35;0.35;;;;;;;15.28;65.71;101141.50;5027430;28;20030;-78
2024/02/16 09:24:17;;;;;;;0.17;0.17;;;;;;;15.33;65.80;101132.38;5026024;28;20068;-76
2024/02/16 09:26:46;;;;;;;0.20;0.20;;;;;;;15.30;65.90;101142.28;5030522;28;20030;-77
2024/02/16 09:29:13;;;;;;;0.20;0.20;;;;;;;15.34;65.88;101149.28;5021937;28;20052;-75
2024/02/16 09:31:41;;;;;;;0.20;0.20;;;;;;;15.35;65.66;101145.66;5037898;28;20397;-76
2024/02/16 09:34:07;;;;;;;0.20;0.20;;;;;;;15.39;65.61;101158.00;5032978;28;20056;-74
2024/02/16 09:36:36;;;;;;;0.25;0.25;;;;;;;15.42;65.62;101165.03;5030415;28;20040;-77
2024/02/16 09:39:02;;;;;;;0.10;0.10;;;;;;;15.33;66.00;101166.22;5038118;28;20029;-77
2024/02/16 09:43:57;;;;;;;1.63;1.60;;;;;;;15.27;66.58;101174.44;4999200;28;20053;-76
2024/02/16 09:46:24;;;;;;;1.10;1.10;;;;;;;15.20;66.60;101179.09;4996239;28;20505;-77
2024/02/16 09:48:52;;;;;;;0.10;0.10;;;;;;;15.08;66.89;101191.09;5006019;28;20034;-77
2024/02/16 09:51:18;;;;;;;2.38;0.68;;;;;;;15.24;66.69;101198.56;5006593;28;20038;-77
2024/02/16 09:53:52;;;;;;;0.30;0.30;;;;;;;15.11;67.63;101217.66;4996640;28;20023;-78
2024/02/16 09:56:18;;;;;;;0.10;0.10;;;;;;;14.86;68.31;101218.44;4998583;28;20022;-76
2024/02/16 09:58:45;;;;;;;0.10;0.10;;;;;;;14.69;69.46;101203.00;4998593;28;20069;-78
2024/02/16 10:01:20;;;;;;;1.48;1.38;;;;;;;14.57;71.11;101224.69;5001275;28;20268;-78
2024/02/16 10:03:46;;;;;;;0.20;0.20;;;;;;;14.47;71.50;101221.41;5004283;28;20022;-78
2024/02/16 10:06:15;;;;;;;0.20;0.20;;;;;;;14.35;71.63;101229.78;5011263;28;20101;-77
2024/02/16 10:11:28;;;;;;;0.25;0.25;;;;;;;14.24;72.17;101262.06;5121150;27;20392;-79
2024/02/16 10:16:32;;;;;;;0.13;0.13;;;;;;;14.11;72.93;101276.69;5068019;28;20406;-79
2024/02/16 10:19:06;;;;;;;0.85;0.60;;;;;;;14.15;73.13;101279.19;5058321;28;20123;-79
2024/02/16 10:21:33;;;;;;;0.10;0.10;;;;;;;14.11;72.34;101301.50;5061993;28;20029;-78
2024/02/16 10:26:38;;;;;;;0.43;0.43;;;;;;;13.95;73.68;101308.19;5089667;27;1221015;-78
2024/02/16 10:29:06;;;;;;;0.20;0.20;;;;;;;13.94;73.06;101298.44;5122605;27;20031;-78
2024/02/16 10:31:33;;;;;;;0.40;0.40;;;;;;;13.82;74.57;101310.28;5120440;28;20035;-76
2024/02/16 10:34:05;;;;;;;0.10;0.10;;;;;;;13.88;74.31;101303.03;5135437;28;20407;-78
2024/02/16 10:36:32;;;;;;;0.10;0.10;;;;;;;13.80;75.04;101304.13;5131099;28;20028;-78
2024/02/16 10:38:59;;;;;;;0.15;0.15;;;;;;;13.68;75.99;101318.63;5134989;27;20031;-78
2024/02/16 10:41:29;;;;;;;0.10;0.10;;;;;;;13.79;75.63;101329.88;5134786;27;20506;-78
2024/02/16 10:43:56;;;;;;;3.50;0.70;;;;;;;13.79;75.29;101326.34;5137009;28;20066;-77
2024/02/16 10:46:24;;;;;;;0.10;0.10;;;;;;;13.82;74.75;101328.91;5135045;28;20106;-78
2024/02/16 10:48:50;;;;;;;0.10;0.10;;;;;;;13.83;75.10;101326.25;5126143;28;20595;-77
2024/02/16 10:51:21;;;;;;;0.60;0.60;;;;;;;13.89;74.16;101334.06;5125356;28;20085;-79
2024/02/16 10:53:50;;;;;;;0.40;0.40;;;;;;;13.89;74.72;101341.16;5130781;27;20026;-77
2024/02/16 10:56:16;;;;;;;1.33;1.20;;;;;;;13.84;75.63;101354.59;5121991;28;20073;-77
2024/02/16 10:58:47;;;;;;;0.10;0.10;;;;;;;13.90;74.64;101348.25;5131021;28;20091;-77
2024/02/16 11:01:17;;;;;;;0.20;0.20;;;;;;;13.85;76.11;101344.84;5120058;27;20031;-76
2024/02/16 11:03:43;;;;;;;0.20;0.20;;;;;;;13.88;75.60;101355.41;5123101;28;20422;-75
2024/02/16 11:06:16;;;;;;;0.10;0.10;;;;;;;13.94;75.50;101346.38;5114701;28;20128;-77
2024/02/16 11:08:42;;;;;;;0.15;0.15;;;;;;;13.93;75.62;101336.63;5110729;28;20046;-77
2024/02/16 11:11:11;;;;;;;0.52;0.52;;;;;;;13.93;75.57;101336.63;5115467;28;20616;-78
2024/02/16 11:13:39;;;;;;;0.80;0.80;;;;;;;13.88;76.33;101350.97;5114112;28;20039;-77
2024/02/16 11:16:09;;;;;;;0.45;0.45;;;;;;;13.90;76.06;101364.25;5116828;28;20398;-76
2024/02/16 11:18:41;;;;;;;0.82;0.82;;;;;;;13.93;75.97;101369.47;5122543;28;20027;-78
2024/02/16 11:21:11;;;;;;;0.57;0.57;;;;;;;13.78;75.83;101375.19;5133140;28;20102;-79
2024/02/16 11:23:39;;;;;;;0.10;0.10;;;;;;;13.73;76.61;101385.97;5134366;28;20031;-79
2024/02/16 11:26:11;;;;;;;0.20;0.20;;;;;;;13.72;76.46;101397.50;5127229;28;20030;-78
2024/02/16 11:28:39;;;;;;;0.13;0.13;;;;;;;13.72;76.13;101398.41;5137953;28;20031;-79
2024/02/16 11:31:07;;;;;;;0.10;0.10;;;;;;;13.69;76.29;101410.91;5132751;27;20027;-78
2024/02/16 11:33:34;;;;;;;0.82;0.80;;;;;;;13.67;76.70;101420.72;5130784;28;20020;-78